sensor_id;sensor_type;location;lat;lon;timestamp;pressure;altitude;pressure_sealevel;temperature;humidity
56831;BME280;42713;42.676;23.352;2022-08-27T00:01:43;94404.75;;;21.80;54.91
56831;BME280;42713;42.676;23.352;2022-08-27T00:04:09;94411.78;;;21.84;54.21
56831;BME280;42713;42.676;23.352;2022-08-27T00:06:34;94415.41;;;21.80;54.91
56831;BME280;42713;42.676;23.352;2022-08-27T00:09:01;94419.34;;;21.73;55.02
56831;BME280;42713;42.676;23.352;2022-08-27T00:11:27;94406.00;;;21.73;55.70
56831;BME280;42713;42.676;23.352;2022-08-27T00:13:53;94408.88;;;21.68;55.49
56831;BME280;42713;42.676;23.352;2022-08-27T00:16:21;94414.50;;;21.67;55.25
56831;BME280;42713;42.676;23.352;2022-08-27T00:18:47;94415.44;;;21.71;54.95
56831;BME280;42713;42.676;23.352;2022-08-27T00:21:12;94409.03;;;21.63;55.28
56831;BME280;42713;42.676;23.352;2022-08-27T00:23:38;94406.38;;;21.63;55.37
56831;BME280;42713;42.676;23.352;2022-08-27T00:26:06;94410.59;;;21.55;57.85
56831;BME280;42713;42.676;23.352;2022-08-27T00:28:32;94412.03;;;21.53;56.54
56831;BME280;42713;42.676;23.352;2022-08-27T00:30:59;94400.31;;;21.45;56.01
56831;BME280;42713;42.676;23.352;2022-08-27T00:33:25;94393.88;;;21.46;55.37
56831;BME280;42713;42.676;23.352;2022-08-27T00:35:51;94392.47;;;21.49;53.31
56831;BME280;42713;42.676;23.352;2022-08-27T00:38:19;94396.09;;;21.44;53.31
56831;BME280;42713;42.676;23.352;2022-08-27T00:40:45;94390.97;;;21.30;54.68
56831;BME280;42713;42.676;23.352;2022-08-27T00:43:11;94398.47;;;21.28;54.70
56831;BME280;42713;42.676;23.352;2022-08-27T00:45:40;94397.88;;;21.22;55.35
56831;BME280;42713;42.676;23.352;2022-08-27T00:48:08;94404.63;;;21.20;54.20
56831;BME280;42713;42.676;23.352;2022-08-27T00:50:51;94403.22;;;21.13;54.86
56831;BME280;42713;42.676;23.352;2022-08-27T00:53:19;94409.34;;;21.14;55.01
56831;BME280;42713;42.676;23.352;2022-08-27T00:55:55;94390.22;;;21.03;54.43
56831;BME280;42713;42.676;23.352;2022-08-27T00:58:37;94397.13;;;21.04;54.20
56831;BME280;42713;42.676;23.352;2022-08-27T01:01:07;94403.09;;;20.83;54.89
56831;BME280;42713;42.676;23.352;2022-08-27T01:03:50;94398.56;;;20.75;55.45
56831;BME280;42713;42.676;23.352;2022-08-27T01:06:19;94398.25;;;20.68;55.68
56831;BME280;42713;42.676;23.352;2022-08-27T01:08:52;94396.19;;;20.65;55.93
56831;BME280;42713;42.676;23.352;2022-08-27T01:11:21;94396.03;;;20.52;56.93
56831;BME280;42713;42.676;23.352;2022-08-27T01:13:49;94394.94;;;20.53;55.18
56831;BME280;42713;42.676;23.352;2022-08-27T01:16:24;94400.59;;;20.43;57.51
56831;BME280;42713;42.676;23.352;2022-08-27T01:18:51;94397.78;;;20.31;58.08
56831;BME280;42713;42.676;23.352;2022-08-27T01:21:49;94394.31;;;20.30;57.96
56831;BME280;42713;42.676;23.352;2022-08-27T01:26:49;94393.53;;;20.21;59.02
56831;BME280;42713;42.676;23.352;2022-08-27T01:29:15;94397.91;;;20.17;59.73
56831;BME280;42713;42.676;23.352;2022-08-27T01:31:41;94399.63;;;20.13;59.21
56831;BME280;42713;42.676;23.352;2022-08-27T01:34:07;94393.19;;;20.05;59.06
56831;BME280;42713;42.676;23.352;2022-08-27T01:36:32;94398.97;;;20.07;58.34
56831;BME280;42713;42.676;23.352;2022-08-27T01:38:58;94397.91;;;20.08;59.19
56831;BME280;42713;42.676;23.352;2022-08-27T01:41:25;94403.38;;;20.03;59.58
56831;BME280;42713;42.676;23.352;2022-08-27T01:43:51;94397.56;;;20.10;57.98
56831;BME280;42713;42.676;23.352;2022-08-27T01:46:22;94396.81;;;20.09;57.42
56831;BME280;42713;42.676;23.352;2022-08-27T01:48:48;94404.94;;;20.13;57.00
56831;BME280;42713;42.676;23.352;2022-08-27T01:51:13;94400.88;;;20.15;57.07
56831;BME280;42713;42.676;23.352;2022-08-27T01:53:39;94401.97;;;20.14;55.62
56831;BME280;42713;42.676;23.352;2022-08-27T01:56:04;94404.47;;;20.11;56.09
56831;BME280;42713;42.676;23.352;2022-08-27T01:58:31;94406.47;;;19.96;59.72
56831;BME280;42713;42.676;23.352;2022-08-27T02:01:06;94407.81;;;19.85;60.39
56831;BME280;42713;42.676;23.352;2022-08-27T02:03:32;94411.25;;;19.77;60.82
56831;BME280;42713;42.676;23.352;2022-08-27T02:06:04;94408.59;;;19.77;59.99
56831;BME280;42713;42.676;23.352;2022-08-27T02:08:30;94413.09;;;19.76;59.13
56831;BME280;42713;42.676;23.352;2022-08-27T02:10:56;94414.94;;;19.67;61.56
56831;BME280;42713;42.676;23.352;2022-08-27T02:13:24;94409.56;;;19.49;61.40
56831;BME280;42713;42.676;23.352;2022-08-27T02:15:49;94413.00;;;19.50;62.05
56831;BME280;42713;42.676;23.352;2022-08-27T02:18:15;94415.81;;;19.44;62.23
56831;BME280;42713;42.676;23.352;2022-08-27T02:20:43;94413.91;;;19.45;62.00
56831;BME280;42713;42.676;23.352;2022-08-27T02:23:09;94416.22;;;19.38;62.54
56831;BME280;42713;42.676;23.352;2022-08-27T02:25:35;94416.56;;;19.36;62.56
56831;BME280;42713;42.676;23.352;2022-08-27T02:28:01;94421.22;;;19.31;62.64
56831;BME280;42713;42.676;23.352;2022-08-27T02:30:29;94417.28;;;19.28;61.46
56831;BME280;42713;42.676;23.352;2022-08-27T02:32:56;94421.22;;;19.31;62.98
56831;BME280;42713;42.676;23.352;2022-08-27T02:35:23;94424.47;;;19.27;63.06
56831;BME280;42713;42.676;23.352;2022-08-27T02:37:50;94429.00;;;19.27;61.85
56831;BME280;42713;42.676;23.352;2022-08-27T02:40:18;94433.16;;;19.19;61.85
56831;BME280;42713;42.676;23.352;2022-08-27T02:42:44;94430.19;;;19.21;62.60
56831;BME280;42713;42.676;23.352;2022-08-27T02:45:11;94434.41;;;19.22;62.79
56831;BME280;42713;42.676;23.352;2022-08-27T02:47:37;94435.66;;;19.16;62.51
56831;BME280;42713;42.676;23.352;2022-08-27T02:50:03;94437.03;;;19.13;61.59
56831;BME280;42713;42.676;23.352;2022-08-27T02:52:29;94429.44;;;19.20;60.49
56831;BME280;42713;42.676;23.352;2022-08-27T02:54:55;94433.06;;;19.24;60.78
56831;BME280;42713;42.676;23.352;2022-08-27T02:57:21;94445.03;;;19.22;61.44
56831;BME280;42713;42.676;23.352;2022-08-27T02:59:48;94437.25;;;19.25;60.49
56831;BME280;42713;42.676;23.352;2022-08-27T03:02:13;94440.88;;;19.29;60.57
56831;BME280;42713;42.676;23.352;2022-08-27T03:04:39;94437.44;;;19.29;59.64
56831;BME280;42713;42.676;23.352;2022-08-27T03:07:05;94433.66;;;19.21;61.38
56831;BME280;42713;42.676;23.352;2022-08-27T03:09:31;94437.81;;;19.13;61.53
56831;BME280;42713;42.676;23.352;2022-08-27T03:11:59;94439.38;;;19.15;60.15
56831;BME280;42713;42.676;23.352;2022-08-27T03:14:25;94442.03;;;19.15;60.41
56831;BME280;42713;42.676;23.352;2022-08-27T03:16:53;94449.09;;;19.19;60.46
56831;BME280;42713;42.676;23.352;2022-08-27T03:19:20;94441.63;;;19.21;60.75
56831;BME280;42713;42.676;23.352;2022-08-27T03:21:46;94445.00;;;19.13;60.84
56831;BME280;42713;42.676;23.352;2022-08-27T03:24:12;94445.13;;;19.08;60.81
56831;BME280;42713;42.676;23.352;2022-08-27T03:26:38;94454.06;;;19.12;59.97
56831;BME280;42713;42.676;23.352;2022-08-27T03:29:05;94453.56;;;19.10;59.78
56831;BME280;42713;42.676;23.352;2022-08-27T03:31:31;94451.81;;;19.05;60.69
56831;BME280;42713;42.676;23.352;2022-08-27T03:34:00;94464.03;;;18.92;62.13
56831;BME280;42713;42.676;23.352;2022-08-27T03:36:28;94458.38;;;18.85;61.78
56831;BME280;42713;42.676;23.352;2022-08-27T03:38:55;94457.88;;;18.83;61.81
56831;BME280;42713;42.676;23.352;2022-08-27T03:41:21;94465.19;;;18.77;62.28
56831;BME280;42713;42.676;23.352;2022-08-27T03:43:48;94458.16;;;18.81;62.00
56831;BME280;42713;42.676;23.352;2022-08-27T03:46:14;94458.78;;;18.78;62.17
56831;BME280;42713;42.676;23.352;2022-08-27T03:48:39;94458.59;;;18.75;62.81
56831;BME280;42713;42.676;23.352;2022-08-27T03:51:07;94462.34;;;18.74;63.45
56831;BME280;42713;42.676;23.352;2022-08-27T03:53:35;94464.00;;;18.70;63.30
56831;BME280;42713;42.676;23.352;2022-08-27T03:56:00;94465.41;;;18.67;64.89
56831;BME280;42713;42.676;23.352;2022-08-27T03:58:26;94470.22;;;18.65;63.77
56831;BME280;42713;42.676;23.352;2022-08-27T04:00:51;94474.31;;;18.71;63.15
56831;BME280;42713;42.676;23.352;2022-08-27T04:03:17;94477.47;;;18.73;62.95
56831;BME280;42713;42.676;23.352;2022-08-27T04:05:42;94475.13;;;18.72;62.43
56831;BME280;42713;42.676;23.352;2022-08-27T04:08:09;94477.47;;;18.73;63.03
56831;BME280;42713;42.676;23.352;2022-08-27T04:10:38;94479.63;;;18.71;63.41
56831;BME280;42713;42.676;23.352;2022-08-27T04:13:04;94477.22;;;18.61;63.58
56831;BME280;42713;42.676;23.352;2022-08-27T04:15:29;94483.84;;;18.72;63.27
56831;BME280;42713;42.676;23.352;2022-08-27T04:17:56;94482.50;;;18.75;62.80
56831;BME280;42713;42.676;23.352;2022-08-27T04:20:21;94478.66;;;18.67;63.74
56831;BME280;42713;42.676;23.352;2022-08-27T04:22:46;94488.25;;;18.77;63.29
56831;BME280;42713;42.676;23.352;2022-08-27T04:25:13;94482.84;;;18.82;62.33
56831;BME280;42713;42.676;23.352;2022-08-27T04:27:38;94480.78;;;18.79;63.25
56831;BME280;42713;42.676;23.352;2022-08-27T04:30:04;94488.16;;;18.82;63.38
56831;BME280;42713;42.676;23.352;2022-08-27T04:32:30;94490.72;;;18.73;65.41
56831;BME280;42713;42.676;23.352;2022-08-27T04:34:58;94494.28;;;18.69;64.81
56831;BME280;42713;42.676;23.352;2022-08-27T04:37:25;94490.22;;;18.71;63.94
56831;BME280;42713;42.676;23.352;2022-08-27T04:39:53;94488.69;;;18.70;64.92
56831;BME280;42713;42.676;23.352;2022-08-27T04:42:19;94487.16;;;18.78;64.19
56831;BME280;42713;42.676;23.352;2022-08-27T04:44:45;94480.00;;;18.78;65.16
56831;BME280;42713;42.676;23.352;2022-08-27T04:47:12;94485.00;;;18.80;64.42
56831;BME280;42713;42.676;23.352;2022-08-27T04:49:37;94489.81;;;18.78;64.98
56831;BME280;42713;42.676;23.352;2022-08-27T04:52:03;94490.69;;;18.87;64.06
56831;BME280;42713;42.676;23.352;2022-08-27T04:54:29;94487.81;;;18.97;63.42
56831;BME280;42713;42.676;23.352;2022-08-27T04:56:54;94499.25;;;18.98;62.89
56831;BME280;42713;42.676;23.352;2022-08-27T04:59:20;94495.50;;;18.99;63.82
56831;BME280;42713;42.676;23.352;2022-08-27T05:01:46;94493.75;;;18.94;64.77
56831;BME280;42713;42.676;23.352;2022-08-27T05:04:14;94496.75;;;19.02;63.99
56831;BME280;42713;42.676;23.352;2022-08-27T05:06:40;94504.13;;;19.05;64.28
56831;BME280;42713;42.676;23.352;2022-08-27T05:09:07;94499.59;;;19.05;63.50
56831;BME280;42713;42.676;23.352;2022-08-27T05:11:32;94502.59;;;19.12;63.33
56831;BME280;42713;42.676;23.352;2022-08-27T05:14:06;94500.13;;;19.16;63.50
56831;BME280;42713;42.676;23.352;2022-08-27T05:16:32;94505.81;;;19.23;63.45
56831;BME280;42713;42.676;23.352;2022-08-27T05:19:01;94509.44;;;19.27;63.88
56831;BME280;42713;42.676;23.352;2022-08-27T05:21:32;94507.75;;;19.32;63.07
56831;BME280;42713;42.676;23.352;2022-08-27T05:23:59;94500.72;;;19.36;62.52
56831;BME280;42713;42.676;23.352;2022-08-27T05:26:26;94506.41;;;19.43;61.53
56831;BME280;42713;42.676;23.352;2022-08-27T05:28:52;94508.16;;;19.48;61.36
56831;BME280;42713;42.676;23.352;2022-08-27T05:31:19;94504.72;;;19.47;61.77
56831;BME280;42713;42.676;23.352;2022-08-27T05:33:46;94505.19;;;19.49;61.41
56831;BME280;42713;42.676;23.352;2022-08-27T05:36:20;94506.28;;;19.48;60.99
56831;BME280;42713;42.676;23.352;2022-08-27T05:38:47;94497.13;;;19.54;60.85
56831;BME280;42713;42.676;23.352;2022-08-27T05:41:16;94510.75;;;19.62;59.75
56831;BME280;42713;42.676;23.352;2022-08-27T05:43:43;94513.25;;;19.67;60.61
56831;BME280;42713;42.676;23.352;2022-08-27T05:46:12;94521.59;;;19.74;60.07
56831;BME280;42713;42.676;23.352;2022-08-27T05:48:39;94519.09;;;19.78;58.07
56831;BME280;42713;42.676;23.352;2022-08-27T05:51:12;94508.94;;;19.80;58.35
56831;BME280;42713;42.676;23.352;2022-08-27T05:53:39;94509.41;;;19.82;59.54
56831;BME280;42713;42.676;23.352;2022-08-27T05:56:13;94515.53;;;19.82;59.39
56831;BME280;42713;42.676;23.352;2022-08-27T05:58:41;94517.88;;;19.84;59.77
56831;BME280;42713;42.676;23.352;2022-08-27T06:01:26;94508.69;;;19.90;59.02
56831;BME280;42713;42.676;23.352;2022-08-27T06:03:52;94519.22;;;19.95;59.17
56831;BME280;42713;42.676;23.352;2022-08-27T06:06:19;94512.81;;;19.96;59.16
56831;BME280;42713;42.676;23.352;2022-08-27T06:08:47;94513.44;;;20.02;59.17
56831;BME280;42713;42.676;23.352;2022-08-27T06:11:13;94519.88;;;20.10;60.08
56831;BME280;42713;42.676;23.352;2022-08-27T06:13:39;94526.94;;;20.14;59.84
56831;BME280;42713;42.676;23.352;2022-08-27T06:16:08;94527.56;;;20.20;59.66
56831;BME280;42713;42.676;23.352;2022-08-27T06:18:36;94524.31;;;20.23;58.93
56831;BME280;42713;42.676;23.352;2022-08-27T06:21:05;94520.72;;;20.28;58.81
56831;BME280;42713;42.676;23.352;2022-08-27T06:23:31;94529.19;;;20.30;59.06
56831;BME280;42713;42.676;23.352;2022-08-27T06:25:58;94513.88;;;20.35;58.12
56831;BME280;42713;42.676;23.352;2022-08-27T06:28:25;94521.41;;;20.42;58.45
56831;BME280;42713;42.676;23.352;2022-08-27T06:31:22;94527.66;;;20.46;58.06
56831;BME280;42713;42.676;23.352;2022-08-27T06:33:48;94525.94;;;20.50;58.52
56831;BME280;42713;42.676;23.352;2022-08-27T06:36:17;94531.91;;;20.56;59.01
56831;BME280;42713;42.676;23.352;2022-08-27T06:38:45;94520.19;;;20.57;56.52
56831;BME280;42713;42.676;23.352;2022-08-27T06:41:13;94517.66;;;20.52;56.33
56831;BME280;42713;42.676;23.352;2022-08-27T06:43:39;94533.16;;;20.59;57.26
56831;BME280;42713;42.676;23.352;2022-08-27T06:46:08;94527.53;;;20.60;57.48
56831;BME280;42713;42.676;23.352;2022-08-27T06:48:34;94522.84;;;20.66;58.06
56831;BME280;42713;42.676;23.352;2022-08-27T06:51:06;94520.34;;;20.69;57.21
56831;BME280;42713;42.676;23.352;2022-08-27T06:53:31;94511.44;;;20.74;55.96
56831;BME280;42713;42.676;23.352;2022-08-27T06:55:57;94516.63;;;20.79;56.21
56831;BME280;42713;42.676;23.352;2022-08-27T06:58:22;94524.16;;;20.86;56.29
56831;BME280;42713;42.676;23.352;2022-08-27T07:00:48;94516.00;;;20.91;55.65
56831;BME280;42713;42.676;23.352;2022-08-27T07:03:15;94518.97;;;20.98;55.47
56831;BME280;42713;42.676;23.352;2022-08-27T07:05:40;94524.94;;;21.04;54.97
56831;BME280;42713;42.676;23.352;2022-08-27T07:08:07;94522.41;;;21.08;54.85
56831;BME280;42713;42.676;23.352;2022-08-27T07:10:33;94519.63;;;21.13;55.16
56831;BME280;42713;42.676;23.352;2022-08-27T07:12:59;94519.16;;;21.20;54.50
56831;BME280;42713;42.676;23.352;2022-08-27T07:15:25;94517.41;;;21.24;54.33
56831;BME280;42713;42.676;23.352;2022-08-27T07:17:51;94509.25;;;21.29;54.32
56831;BME280;42713;42.676;23.352;2022-08-27T07:20:18;94510.66;;;21.35;54.27
56831;BME280;42713;42.676;23.352;2022-08-27T07:22:45;94512.84;;;21.42;54.81
56831;BME280;42713;42.676;23.352;2022-08-27T07:25:14;94500.44;;;21.46;54.24
56831;BME280;42713;42.676;23.352;2022-08-27T07:27:40;94517.84;;;21.52;53.24
56831;BME280;42713;42.676;23.352;2022-08-27T07:30:09;94511.56;;;21.57;52.86
56831;BME280;42713;42.676;23.352;2022-08-27T07:32:36;94517.38;;;21.59;53.75
56831;BME280;42713;42.676;23.352;2022-08-27T07:35:02;94521.75;;;21.55;54.32
56831;BME280;42713;42.676;23.352;2022-08-27T07:37:29;94518.47;;;21.58;53.94
56831;BME280;42713;42.676;23.352;2022-08-27T07:39:54;94518.78;;;21.65;53.53
56831;BME280;42713;42.676;23.352;2022-08-27T07:42:21;94520.81;;;21.68;53.92
56831;BME280;42713;42.676;23.352;2022-08-27T07:45:05;94523.63;;;21.72;53.60
56831;BME280;42713;42.676;23.352;2022-08-27T07:47:31;94525.28;;;21.85;53.60
56831;BME280;42713;42.676;23.352;2022-08-27T07:49:57;94524.19;;;21.95;52.79
56831;BME280;42713;42.676;23.352;2022-08-27T07:52:22;94529.03;;;22.02;52.26
56831;BME280;42713;42.676;23.352;2022-08-27T07:54:48;94524.28;;;22.07;52.07
56831;BME280;42713;42.676;23.352;2022-08-27T07:57:14;94516.09;;;22.13;52.85
56831;BME280;42713;42.676;23.352;2022-08-27T07:59:39;94527.84;;;22.20;53.00
56831;BME280;42713;42.676;23.352;2022-08-27T08:02:05;94527.78;;;22.29;53.28
56831;BME280;42713;42.676;23.352;2022-08-27T08:04:30;94524.31;;;22.37;53.02
56831;BME280;42713;42.676;23.352;2022-08-27T08:06:56;94526.19;;;22.46;53.13
56831;BME280;42713;42.676;23.352;2022-08-27T08:09:22;94527.22;;;22.53;53.02
56831;BME280;42713;42.676;23.352;2022-08-27T08:11:49;94525.13;;;22.59;53.18
56831;BME280;42713;42.676;23.352;2022-08-27T08:14:16;94523.06;;;22.65;53.52
56831;BME280;42713;42.676;23.352;2022-08-27T08:16:42;94521.31;;;22.69;52.36
56831;BME280;42713;42.676;23.352;2022-08-27T08:19:08;94520.03;;;22.75;51.16
56831;BME280;42713;42.676;23.352;2022-08-27T08:21:34;94512.59;;;22.81;50.42
56831;BME280;42713;42.676;23.352;2022-08-27T08:24:00;94509.41;;;22.88;50.99
56831;BME280;42713;42.676;23.352;2022-08-27T08:26:26;94502.50;;;22.87;49.52
56831;BME280;42713;42.676;23.352;2022-08-27T08:28:52;94503.09;;;22.92;49.67
56831;BME280;42713;42.676;23.352;2022-08-27T08:31:17;94503.34;;;22.99;50.36
56831;BME280;42713;42.676;23.352;2022-08-27T08:33:43;94509.09;;;23.10;50.75
56831;BME280;42713;42.676;23.352;2022-08-27T08:36:11;94510.94;;;23.19;50.72
56831;BME280;42713;42.676;23.352;2022-08-27T08:38:38;94500.50;;;23.26;50.27
56831;BME280;42713;42.676;23.352;2022-08-27T08:41:06;94503.75;;;23.31;49.62
56831;BME280;42713;42.676;23.352;2022-08-27T08:46:16;94510.47;;;23.50;48.60
56831;BME280;42713;42.676;23.352;2022-08-27T08:48:47;94509.94;;;23.57;46.11
56831;BME280;42713;42.676;23.352;2022-08-27T08:51:37;94511.63;;;23.61;45.63
56831;BME280;42713;42.676;23.352;2022-08-27T08:54:31;94511.22;;;23.72;46.55
56831;BME280;42713;42.676;23.352;2022-08-27T08:57:04;94506.44;;;23.77;45.72
56831;BME280;42713;42.676;23.352;2022-08-27T09:01:57;94501.97;;;23.82;45.62
56831;BME280;42713;42.676;23.352;2022-08-27T09:04:24;94498.28;;;23.86;44.81
56831;BME280;42713;42.676;23.352;2022-08-27T09:06:55;94504.66;;;23.94;44.74
56831;BME280;42713;42.676;23.352;2022-08-27T09:09:28;94504.59;;;24.03;44.77
56831;BME280;42713;42.676;23.352;2022-08-27T09:12:02;94501.78;;;24.12;45.71
56831;BME280;42713;42.676;23.352;2022-08-27T09:16:59;94490.66;;;24.22;43.30
56831;BME280;42713;42.676;23.352;2022-08-27T09:19:25;94495.09;;;24.30;42.85
56831;BME280;42713;42.676;23.352;2022-08-27T09:27:55;94486.41;;;24.46;41.66
56831;BME280;42713;42.676;23.352;2022-08-27T09:30:29;94489.75;;;24.55;41.27
56831;BME280;42713;42.676;23.352;2022-08-27T09:32:59;94482.72;;;24.63;40.40
56831;BME280;42713;42.676;23.352;2022-08-27T09:35:27;94481.47;;;24.73;40.04
56831;BME280;42713;42.676;23.352;2022-08-27T09:38:01;94486.72;;;24.81;40.12
56831;BME280;42713;42.676;23.352;2022-08-27T09:40:37;94484.22;;;24.89;40.67
56831;BME280;42713;42.676;23.352;2022-08-27T09:43:06;94476.81;;;24.98;40.55
56831;BME280;42713;42.676;23.352;2022-08-27T09:45:33;94477.38;;;25.04;40.45
56831;BME280;42713;42.676;23.352;2022-08-27T09:48:09;94473.09;;;25.15;42.56
56831;BME280;42713;42.676;23.352;2022-08-27T09:50:42;94480.28;;;25.27;41.94
56831;BME280;42713;42.676;23.352;2022-08-27T09:55:47;94483.03;;;25.43;40.11
56831;BME280;42713;42.676;23.352;2022-08-27T09:58:31;94475.09;;;25.46;41.07
56831;BME280;42713;42.676;23.352;2022-08-27T10:01:14;94470.94;;;25.49;39.86
56831;BME280;42713;42.676;23.352;2022-08-27T10:03:40;94475.53;;;25.48;39.18
56831;BME280;42713;42.676;23.352;2022-08-27T10:06:07;94473.47;;;25.58;39.45
56831;BME280;42713;42.676;23.352;2022-08-27T10:08:46;94465.59;;;25.65;39.22
56831;BME280;42713;42.676;23.352;2022-08-27T10:19:34;94460.22;;;25.97;36.42
56831;BME280;42713;42.676;23.352;2022-08-27T10:25:14;94465.53;;;25.93;35.87
56831;BME280;42713;42.676;23.352;2022-08-27T10:28:00;94464.47;;;25.98;36.05
56831;BME280;42713;42.676;23.352;2022-08-27T10:39:03;94459.00;;;26.26;36.34
56831;BME280;42713;42.676;23.352;2022-08-27T10:41:40;94460.38;;;26.36;35.69
56831;BME280;42713;42.676;23.352;2022-08-27T10:50:05;94463.88;;;26.56;33.38
56831;BME280;42713;42.676;23.352;2022-08-27T10:52:40;94464.66;;;26.57;33.34
56831;BME280;42713;42.676;23.352;2022-08-27T10:55:15;94463.63;;;26.62;33.23
56831;BME280;42713;42.676;23.352;2022-08-27T11:00:33;94459.50;;;26.84;32.36
56831;BME280;42713;42.676;23.352;2022-08-27T11:03:09;94462.88;;;27.00;33.84
56831;BME280;42713;42.676;23.352;2022-08-27T11:05:48;94453.91;;;27.12;33.44
56831;BME280;42713;42.676;23.352;2022-08-27T11:11:01;94462.50;;;27.61;31.53
56831;BME280;42713;42.676;23.352;2022-08-27T11:13:35;94452.50;;;27.85;31.62
56831;BME280;42713;42.676;23.352;2022-08-27T11:16:16;94449.47;;;28.09;29.95
56831;BME280;42713;42.676;23.352;2022-08-27T11:18:53;94446.00;;;28.36;29.60
56831;BME280;42713;42.676;23.352;2022-08-27T11:21:36;94451.66;;;28.57;29.71
56831;BME280;42713;42.676;23.352;2022-08-27T11:24:27;94445.81;;;28.79;30.23
56831;BME280;42713;42.676;23.352;2022-08-27T11:26:57;94436.03;;;28.97;30.88
56831;BME280;42713;42.676;23.352;2022-08-27T11:29:35;94441.25;;;29.17;31.68
56831;BME280;42713;42.676;23.352;2022-08-27T11:34:55;94431.34;;;29.28;29.48
56831;BME280;42713;42.676;23.352;2022-08-27T11:43:03;94420.50;;;29.25;27.66
56831;BME280;42713;42.676;23.352;2022-08-27T11:45:33;94421.59;;;29.20;27.98
56831;BME280;42713;42.676;23.352;2022-08-27T11:50:58;94420.25;;;29.33;28.38
56831;BME280;42713;42.676;23.352;2022-08-27T11:53:37;94409.78;;;29.28;27.16
56831;BME280;42713;42.676;23.352;2022-08-27T11:56:15;94412.09;;;29.30;27.93
56831;BME280;42713;42.676;23.352;2022-08-27T11:58:44;94418.72;;;29.36;29.06
56831;BME280;42713;42.676;23.352;2022-08-27T12:01:27;94405.63;;;29.34;28.98
56831;BME280;42713;42.676;23.352;2022-08-27T12:04:02;94413.44;;;29.47;28.55
56831;BME280;42713;42.676;23.352;2022-08-27T12:06:40;94402.31;;;29.56;28.62
56831;BME280;42713;42.676;23.352;2022-08-27T12:09:21;94407.41;;;29.61;29.10
56831;BME280;42713;42.676;23.352;2022-08-27T12:12:00;94404.31;;;29.62;26.84
56831;BME280;42713;42.676;23.352;2022-08-27T12:17:15;94390.94;;;29.73;27.03
56831;BME280;42713;42.676;23.352;2022-08-27T12:20:05;94393.25;;;29.78;25.84
56831;BME280;42713;42.676;23.352;2022-08-27T12:25:58;94388.31;;;29.88;25.64
56831;BME280;42713;42.676;23.352;2022-08-27T12:28:26;94383.00;;;29.95;25.85
56831;BME280;42713;42.676;23.352;2022-08-27T12:30:52;94380.75;;;30.08;26.79
56831;BME280;42713;42.676;23.352;2022-08-27T12:33:27;94385.09;;;30.23;26.71
56831;BME280;42713;42.676;23.352;2022-08-27T12:35:55;94376.72;;;30.43;26.27
56831;BME280;42713;42.676;23.352;2022-08-27T12:38:40;94374.50;;;30.59;26.62
56831;BME280;42713;42.676;23.352;2022-08-27T12:41:07;94378.78;;;30.71;25.50
56831;BME280;42713;42.676;23.352;2022-08-27T12:43:37;94379.97;;;30.81;24.76
56831;BME280;42713;42.676;23.352;2022-08-27T12:46:12;94376.94;;;30.97;25.96
56831;BME280;42713;42.676;23.352;2022-08-27T12:48:46;94378.94;;;31.18;26.70
56831;BME280;42713;42.676;23.352;2022-08-27T12:51:22;94373.97;;;31.35;26.18
56831;BME280;42713;42.676;23.352;2022-08-27T12:54:31;94370.09;;;31.54;25.38
56831;BME280;42713;42.676;23.352;2022-08-27T13:05:04;94368.94;;;32.27;26.92
56831;BME280;42713;42.676;23.352;2022-08-27T13:07:39;94371.59;;;32.38;26.34
56831;BME280;42713;42.676;23.352;2022-08-27T13:10:15;94371.91;;;32.62;25.22
56831;BME280;42713;42.676;23.352;2022-08-27T13:12:43;94366.81;;;32.68;23.32
56831;BME280;42713;42.676;23.352;2022-08-27T13:15:11;94364.50;;;32.77;22.58
56831;BME280;42713;42.676;23.352;2022-08-27T13:17:39;94363.25;;;32.96;22.22
56831;BME280;42713;42.676;23.352;2022-08-27T13:20:14;94363.19;;;33.03;22.77
56831;BME280;42713;42.676;23.352;2022-08-27T13:22:40;94354.19;;;33.21;22.02
56831;BME280;42713;42.676;23.352;2022-08-27T13:25:31;94345.94;;;33.39;21.77
56831;BME280;42713;42.676;23.352;2022-08-27T13:28:10;94348.13;;;33.59;21.97
56831;BME280;42713;42.676;23.352;2022-08-27T13:30:40;94346.75;;;33.81;22.21
56831;BME280;42713;42.676;23.352;2022-08-27T13:33:08;94347.44;;;33.96;21.69
56831;BME280;42713;42.676;23.352;2022-08-27T13:35:35;94351.16;;;34.10;21.20
56831;BME280;42713;42.676;23.352;2022-08-27T13:38:02;94349.94;;;34.18;20.84
56831;BME280;42713;42.676;23.352;2022-08-27T13:40:36;94352.06;;;34.34;20.26
56831;BME280;42713;42.676;23.352;2022-08-27T13:43:11;94343.69;;;34.56;20.84
56831;BME280;42713;42.676;23.352;2022-08-27T13:45:38;94344.63;;;34.76;21.27
56831;BME280;42713;42.676;23.352;2022-08-27T13:48:06;94337.44;;;34.94;20.41
56831;BME280;42713;42.676;23.352;2022-08-27T13:50:33;94340.72;;;35.09;20.16
56831;BME280;42713;42.676;23.352;2022-08-27T13:53:05;94333.56;;;35.18;19.66
56831;BME280;42713;42.676;23.352;2022-08-27T13:55:50;94341.03;;;35.42;19.21
56831;BME280;42713;42.676;23.352;2022-08-27T13:58:31;94339.13;;;35.62;19.13
56831;BME280;42713;42.676;23.352;2022-08-27T14:01:13;94349.22;;;35.89;18.76
56831;BME280;42713;42.676;23.352;2022-08-27T14:03:49;94349.47;;;36.19;19.09
56831;BME280;42713;42.676;23.352;2022-08-27T14:09:39;94351.44;;;36.99;20.02
56831;BME280;42713;42.676;23.352;2022-08-27T14:12:07;94343.22;;;37.19;18.68
56831;BME280;42713;42.676;23.352;2022-08-27T14:14:37;94344.41;;;37.34;18.34
56831;BME280;42713;42.676;23.352;2022-08-27T14:17:05;94348.78;;;37.48;17.72
56831;BME280;42713;42.676;23.352;2022-08-27T14:19:33;94340.16;;;37.66;17.34
56831;BME280;42713;42.676;23.352;2022-08-27T14:21:59;94344.16;;;37.78;17.66